aviador You're here:

KMHS Decoded Metar

MOUNT SHASTA in CA, USA
Report Time2017-04-29 10:56:00
UTC Time2017-04-29 11:16:21
Flight Rules vfr VFR
WindCalm
Visibility9999 m
Phenomena:N/A
Clouds:N/A
Expected CloudBase > 1,200 ft AGL from Temp-Dew spread
CeilingNone
Temp-1°C (ISA -9)
Dew Point-4°C (80% RH)
AAT-3.5°C
QNH1024 hPa
Density Alt2,149 ft
Elevation3,537 ft
Report Wrong Elevation
Raw Report
KMHS 291056Z AUTO 00000KT 10SM CLR M01/M04 A3023=

Extra information for KMHS:More info

Metar Taf Metar & Taf Last 4 Metars F.Rules Stats Wind Profile Meteogram Temp Stats Airport Information Weather charts Add Link Nearby VenuesMetar ALERT Operation Metar Decoded Social comments

AIRNAV info for KMHS